sensor_id;sensor_type;location;lat;lon;timestamp;pressure;altitude;pressure_sealevel;temperature;humidity
34374;BME280;20637;55.770;37.592;2024-01-15T00:02:05;97651.25;;;-6.54;72.59
34374;BME280;20637;55.770;37.592;2024-01-15T00:04:36;97643.06;;;-6.49;73.11
34374;BME280;20637;55.770;37.592;2024-01-15T00:07:03;97660.34;;;-6.47;73.01
34374;BME280;20637;55.770;37.592;2024-01-15T00:09:28;97653.00;;;-6.42;72.59
34374;BME280;20637;55.770;37.592;2024-01-15T00:11:54;97642.25;;;-6.39;72.51
34374;BME280;20637;55.770;37.592;2024-01-15T00:14:20;97651.91;;;-6.39;72.89
34374;BME280;20637;55.770;37.592;2024-01-15T00:16:46;97645.53;;;-6.48;72.78
34374;BME280;20637;55.770;37.592;2024-01-15T00:19:12;97638.69;;;-6.61;72.85
34374;BME280;20637;55.770;37.592;2024-01-15T00:21:38;97642.03;;;-6.59;72.53
34374;BME280;20637;55.770;37.592;2024-01-15T00:24:03;97629.41;;;-6.54;73.11
34374;BME280;20637;55.770;37.592;2024-01-15T00:26:29;97632.44;;;-6.48;72.71
34374;BME280;20637;55.770;37.592;2024-01-15T00:28:55;97628.16;;;-6.49;72.65
34374;BME280;20637;55.770;37.592;2024-01-15T00:31:21;97629.94;;;-6.49;73.17
34374;BME280;20637;55.770;37.592;2024-01-15T00:33:46;97631.38;;;-6.45;72.79
34374;BME280;20637;55.770;37.592;2024-01-15T00:36:12;97626.75;;;-6.42;73.01
34374;BME280;20637;55.770;37.592;2024-01-15T00:38:39;97631.16;;;-6.42;72.90
34374;BME280;20637;55.770;37.592;2024-01-15T00:41:04;97626.34;;;-6.48;72.55
34374;BME280;20637;55.770;37.592;2024-01-15T00:43:30;97625.28;;;-6.46;72.77
34374;BME280;20637;55.770;37.592;2024-01-15T00:45:56;97612.03;;;-6.44;73.19
34374;BME280;20637;55.770;37.592;2024-01-15T00:48:21;97614.56;;;-6.43;73.47
34374;BME280;20637;55.770;37.592;2024-01-15T00:50:47;97618.88;;;-6.42;72.82
34374;BME280;20637;55.770;37.592;2024-01-15T00:53:12;97612.22;;;-6.35;73.19
34374;BME280;20637;55.770;37.592;2024-01-15T00:55:38;97605.28;;;-6.36;73.28
34374;BME280;20637;55.770;37.592;2024-01-15T00:58:04;97607.06;;;-6.36;72.82
34374;BME280;20637;55.770;37.592;2024-01-15T01:00:29;97603.03;;;-6.29;72.93
34374;BME280;20637;55.770;37.592;2024-01-15T01:02:55;97595.44;;;-6.21;73.61
34374;BME280;20637;55.770;37.592;2024-01-15T01:05:21;97592.59;;;-6.18;73.54
34374;BME280;20637;55.770;37.592;2024-01-15T01:07:46;97599.84;;;-6.21;73.54
34374;BME280;20637;55.770;37.592;2024-01-15T01:10:12;97595.34;;;-6.19;73.20
34374;BME280;20637;55.770;37.592;2024-01-15T01:12:38;97589.56;;;-6.24;73.16
34374;BME280;20637;55.770;37.592;2024-01-15T01:15:04;97584.56;;;-6.28;73.28
34374;BME280;20637;55.770;37.592;2024-01-15T01:17:31;97578.38;;;-6.27;73.38
34374;BME280;20637;55.770;37.592;2024-01-15T01:19:57;97582.78;;;-6.27;72.89
34374;BME280;20637;55.770;37.592;2024-01-15T01:22:22;97573.72;;;-6.23;73.06
34374;BME280;20637;55.770;37.592;2024-01-15T01:24:48;97576.00;;;-6.18;73.16
34374;BME280;20637;55.770;37.592;2024-01-15T01:27:13;97568.00;;;-6.17;73.65
34374;BME280;20637;55.770;37.592;2024-01-15T01:29:39;97567.38;;;-6.20;73.11
34374;BME280;20637;55.770;37.592;2024-01-15T01:32:05;97562.28;;;-6.22;73.51
34374;BME280;20637;55.770;37.592;2024-01-15T01:34:32;97559.41;;;-6.19;73.50
34374;BME280;20637;55.770;37.592;2024-01-15T01:36:58;97564.66;;;-6.19;73.40
34374;BME280;20637;55.770;37.592;2024-01-15T01:39:24;97558.22;;;-6.15;74.08
34374;BME280;20637;55.770;37.592;2024-01-15T01:41:49;97555.59;;;-6.15;73.78
34374;BME280;20637;55.770;37.592;2024-01-15T01:44:15;97560.84;;;-6.15;73.43
34374;BME280;20637;55.770;37.592;2024-01-15T01:46:41;97555.72;;;-6.16;73.76
34374;BME280;20637;55.770;37.592;2024-01-15T01:49:08;97553.09;;;-6.16;73.44
34374;BME280;20637;55.770;37.592;2024-01-15T01:51:35;97548.00;;;-6.07;73.88
34374;BME280;20637;55.770;37.592;2024-01-15T01:54:04;97545.00;;;-6.02;73.83
34374;BME280;20637;55.770;37.592;2024-01-15T01:56:30;97544.78;;;-5.99;74.08
34374;BME280;20637;55.770;37.592;2024-01-15T01:58:56;97533.44;;;-6.00;73.96
34374;BME280;20637;55.770;37.592;2024-01-15T02:01:22;97541.56;;;-6.03;74.20
34374;BME280;20637;55.770;37.592;2024-01-15T02:03:48;97531.16;;;-6.04;73.80
34374;BME280;20637;55.770;37.592;2024-01-15T02:06:14;97539.88;;;-6.04;74.12
34374;BME280;20637;55.770;37.592;2024-01-15T02:08:43;97536.91;;;-5.99;74.75
34374;BME280;20637;55.770;37.592;2024-01-15T02:11:09;97538.34;;;-5.95;74.44
34374;BME280;20637;55.770;37.592;2024-01-15T02:13:34;97524.03;;;-5.91;75.24
34374;BME280;20637;55.770;37.592;2024-01-15T02:16:00;97526.25;;;-5.87;75.16
34374;BME280;20637;55.770;37.592;2024-01-15T02:18:26;97521.72;;;-5.85;74.54
34374;BME280;20637;55.770;37.592;2024-01-15T02:21:12;97530.19;;;-5.81;74.71
34374;BME280;20637;55.770;37.592;2024-01-15T02:23:38;97536.28;;;-5.81;74.90
34374;BME280;20637;55.770;37.592;2024-01-15T02:26:05;97533.31;;;-5.76;75.12
34374;BME280;20637;55.770;37.592;2024-01-15T02:28:31;97536.78;;;-5.64;75.17
34374;BME280;20637;55.770;37.592;2024-01-15T02:30:57;97526.50;;;-5.56;75.69
34374;BME280;20637;55.770;37.592;2024-01-15T02:33:23;97526.88;;;-5.50;74.75
34374;BME280;20637;55.770;37.592;2024-01-15T02:35:49;97529.13;;;-5.45;75.25
34374;BME280;20637;55.770;37.592;2024-01-15T02:38:18;97530.19;;;-5.48;74.62
34374;BME280;20637;55.770;37.592;2024-01-15T02:40:46;97533.81;;;-5.49;74.74
34374;BME280;20637;55.770;37.592;2024-01-15T02:43:12;97523.41;;;-5.50;74.75
34374;BME280;20637;55.770;37.592;2024-01-15T02:45:39;97521.47;;;-5.48;74.22
34374;BME280;20637;55.770;37.592;2024-01-15T02:48:05;97520.16;;;-5.43;74.78
34374;BME280;20637;55.770;37.592;2024-01-15T02:50:30;97524.91;;;-5.37;75.09
34374;BME280;20637;55.770;37.592;2024-01-15T02:52:56;97525.66;;;-5.35;74.58
34374;BME280;20637;55.770;37.592;2024-01-15T02:55:22;97522.78;;;-5.32;74.08
34374;BME280;20637;55.770;37.592;2024-01-15T02:57:48;97520.50;;;-5.36;75.15
34374;BME280;20637;55.770;37.592;2024-01-15T03:00:14;97529.72;;;-5.42;75.02
34374;BME280;20637;55.770;37.592;2024-01-15T03:02:40;97517.06;;;-5.48;74.50
34374;BME280;20637;55.770;37.592;2024-01-15T03:05:09;97518.63;;;-5.45;74.30
34374;BME280;20637;55.770;37.592;2024-01-15T03:07:35;97516.94;;;-5.46;74.95
34374;BME280;20637;55.770;37.592;2024-01-15T03:10:00;97518.63;;;-5.45;74.78
34374;BME280;20637;55.770;37.592;2024-01-15T03:12:28;97522.31;;;-5.48;74.84
34374;BME280;20637;55.770;37.592;2024-01-15T03:14:54;97515.16;;;-5.46;75.08
34374;BME280;20637;55.770;37.592;2024-01-15T03:17:19;97507.50;;;-5.38;74.29
34374;BME280;20637;55.770;37.592;2024-01-15T03:19:45;97503.66;;;-5.34;74.61
34374;BME280;20637;55.770;37.592;2024-01-15T03:22:11;97503.31;;;-5.29;74.47
34374;BME280;20637;55.770;37.592;2024-01-15T03:24:36;97507.84;;;-5.31;74.72
34374;BME280;20637;55.770;37.592;2024-01-15T03:27:02;97507.94;;;-5.33;74.95
34374;BME280;20637;55.770;37.592;2024-01-15T03:29:28;97505.22;;;-5.31;75.33
34374;BME280;20637;55.770;37.592;2024-01-15T03:31:54;97498.88;;;-5.29;74.86
34374;BME280;20637;55.770;37.592;2024-01-15T03:34:19;97498.88;;;-5.29;75.45
34374;BME280;20637;55.770;37.592;2024-01-15T03:36:45;97495.03;;;-5.24;75.16
34374;BME280;20637;55.770;37.592;2024-01-15T03:39:11;97492.03;;;-5.20;74.52
34374;BME280;20637;55.770;37.592;2024-01-15T03:41:36;97495.00;;;-5.13;75.04
34374;BME280;20637;55.770;37.592;2024-01-15T03:44:02;97488.19;;;-5.05;74.84
34374;BME280;20637;55.770;37.592;2024-01-15T03:46:28;97488.19;;;-5.05;75.11
34374;BME280;20637;55.770;37.592;2024-01-15T03:48:53;97491.97;;;-4.98;75.73
34374;BME280;20637;55.770;37.592;2024-01-15T03:51:19;97484.94;;;-4.97;75.35
34374;BME280;20637;55.770;37.592;2024-01-15T03:53:45;97484.44;;;-4.91;74.49
34374;BME280;20637;55.770;37.592;2024-01-15T03:56:10;97484.19;;;-4.88;74.66
34374;BME280;20637;55.770;37.592;2024-01-15T03:58:36;97486.25;;;-4.92;74.61
34374;BME280;20637;55.770;37.592;2024-01-15T04:01:02;97486.81;;;-4.88;74.43
34374;BME280;20637;55.770;37.592;2024-01-15T04:03:27;97487.88;;;-4.79;74.54
34374;BME280;20637;55.770;37.592;2024-01-15T04:05:53;97482.25;;;-4.75;74.55
34374;BME280;20637;55.770;37.592;2024-01-15T04:08:19;97480.56;;;-4.76;75.50
34374;BME280;20637;55.770;37.592;2024-01-15T04:10:45;97470.28;;;-4.79;75.30
34374;BME280;20637;55.770;37.592;2024-01-15T04:13:10;97475.66;;;-4.81;75.19
34374;BME280;20637;55.770;37.592;2024-01-15T04:15:36;97474.63;;;-4.89;75.15
34374;BME280;20637;55.770;37.592;2024-01-15T04:18:02;97472.81;;;-4.89;75.33
34374;BME280;20637;55.770;37.592;2024-01-15T04:20:28;97480.59;;;-4.87;76.12
34374;BME280;20637;55.770;37.592;2024-01-15T04:22:54;97476.50;;;-4.80;75.88
34374;BME280;20637;55.770;37.592;2024-01-15T04:25:19;97475.56;;;-4.79;75.92
34374;BME280;20637;55.770;37.592;2024-01-15T04:27:45;97471.72;;;-4.86;76.53
34374;BME280;20637;55.770;37.592;2024-01-15T04:30:10;97469.94;;;-4.86;76.06
34374;BME280;20637;55.770;37.592;2024-01-15T04:32:36;97468.63;;;-4.80;76.08
34374;BME280;20637;55.770;37.592;2024-01-15T04:35:02;97473.25;;;-4.72;76.87
34374;BME280;20637;55.770;37.592;2024-01-15T04:37:29;97470.25;;;-4.68;76.31
34374;BME280;20637;55.770;37.592;2024-01-15T04:39:54;97475.09;;;-4.63;76.24
34374;BME280;20637;55.770;37.592;2024-01-15T04:42:21;97472.34;;;-4.62;76.44
34374;BME280;20637;55.770;37.592;2024-01-15T04:44:47;97463.50;;;-4.61;76.65
34374;BME280;20637;55.770;37.592;2024-01-15T04:47:12;97469.09;;;-4.54;76.58
34374;BME280;20637;55.770;37.592;2024-01-15T04:49:38;97455.28;;;-4.47;76.70
34374;BME280;20637;55.770;37.592;2024-01-15T04:52:04;97460.88;;;-4.40;77.21
34374;BME280;20637;55.770;37.592;2024-01-15T04:54:29;97468.16;;;-4.32;76.40
34374;BME280;20637;55.770;37.592;2024-01-15T04:56:55;97460.38;;;-4.34;76.13
34374;BME280;20637;55.770;37.592;2024-01-15T04:59:21;97461.53;;;-4.27;76.38
34374;BME280;20637;55.770;37.592;2024-01-15T05:01:46;97458.78;;;-4.25;77.12
34374;BME280;20637;55.770;37.592;2024-01-15T05:04:12;97464.72;;;-4.23;76.84
34374;BME280;20637;55.770;37.592;2024-01-15T05:06:38;97459.72;;;-4.26;76.79
34374;BME280;20637;55.770;37.592;2024-01-15T05:09:04;97456.50;;;-4.30;76.84
34374;BME280;20637;55.770;37.592;2024-01-15T05:11:30;97466.66;;;-4.25;76.81
34374;BME280;20637;55.770;37.592;2024-01-15T05:13:55;97461.06;;;-4.32;76.43
34374;BME280;20637;55.770;37.592;2024-01-15T05:16:21;97459.16;;;-4.30;76.78
34374;BME280;20637;55.770;37.592;2024-01-15T05:18:47;97459.41;;;-4.33;77.30
34374;BME280;20637;55.770;37.592;2024-01-15T05:21:12;97460.00;;;-4.29;77.04
34374;BME280;20637;55.770;37.592;2024-01-15T05:23:38;97460.69;;;-4.27;76.76
34374;BME280;20637;55.770;37.592;2024-01-15T05:26:04;97452.78;;;-4.27;76.98
34374;BME280;20637;55.770;37.592;2024-01-15T05:28:29;97455.97;;;-4.24;77.49
34374;BME280;20637;55.770;37.592;2024-01-15T05:30:55;97458.38;;;-4.21;76.79
34374;BME280;20637;55.770;37.592;2024-01-15T05:33:23;97452.13;;;-4.20;77.08
34374;BME280;20637;55.770;37.592;2024-01-15T05:35:48;97453.34;;;-4.24;77.62
34374;BME280;20637;55.770;37.592;2024-01-15T05:38:16;97450.59;;;-4.22;77.05
34374;BME280;20637;55.770;37.592;2024-01-15T05:40:42;97447.13;;;-4.23;77.36
34374;BME280;20637;55.770;37.592;2024-01-15T05:43:08;97451.81;;;-4.26;77.68
34374;BME280;20637;55.770;37.592;2024-01-15T05:45:38;97451.72;;;-4.25;77.01
34374;BME280;20637;55.770;37.592;2024-01-15T05:48:04;97446.16;;;-4.22;78.39
34374;BME280;20637;55.770;37.592;2024-01-15T05:50:30;97453.81;;;-4.19;78.19
34374;BME280;20637;55.770;37.592;2024-01-15T05:52:55;97452.59;;;-4.15;77.58
34374;BME280;20637;55.770;37.592;2024-01-15T05:55:21;97458.16;;;-4.08;78.34
34374;BME280;20637;55.770;37.592;2024-01-15T05:57:46;97459.84;;;-4.07;77.87
34374;BME280;20637;55.770;37.592;2024-01-15T06:00:12;97455.03;;;-4.02;77.38
34374;BME280;20637;55.770;37.592;2024-01-15T06:02:38;97454.47;;;-3.96;78.39
34374;BME280;20637;55.770;37.592;2024-01-15T06:05:05;97453.25;;;-3.92;78.09
34374;BME280;20637;55.770;37.592;2024-01-15T06:07:33;97454.66;;;-3.88;78.02
34374;BME280;20637;55.770;37.592;2024-01-15T06:09:58;97453.72;;;-3.87;78.05
34374;BME280;20637;55.770;37.592;2024-01-15T06:12:24;97456.75;;;-3.82;77.74
34374;BME280;20637;55.770;37.592;2024-01-15T06:14:50;97459.16;;;-3.79;78.15
34374;BME280;20637;55.770;37.592;2024-01-15T06:17:15;97458.63;;;-3.73;77.57
34374;BME280;20637;55.770;37.592;2024-01-15T06:19:41;97460.81;;;-3.78;77.19
34374;BME280;20637;55.770;37.592;2024-01-15T06:22:06;97458.31;;;-3.79;78.08
34374;BME280;20637;55.770;37.592;2024-01-15T06:24:32;97459.16;;;-3.79;77.20
34374;BME280;20637;55.770;37.592;2024-01-15T06:26:57;97460.81;;;-3.78;77.64
34374;BME280;20637;55.770;37.592;2024-01-15T06:29:25;97458.16;;;-3.78;77.71
34374;BME280;20637;55.770;37.592;2024-01-15T06:31:51;97462.94;;;-3.72;77.44
34374;BME280;20637;55.770;37.592;2024-01-15T06:34:17;97453.06;;;-3.70;77.66
34374;BME280;20637;55.770;37.592;2024-01-15T06:36:43;97463.38;;;-3.67;77.87
34374;BME280;20637;55.770;37.592;2024-01-15T06:39:08;97457.84;;;-3.64;77.20
34374;BME280;20637;55.770;37.592;2024-01-15T06:41:35;97462.25;;;-3.64;77.66
34374;BME280;20637;55.770;37.592;2024-01-15T06:44:06;97459.34;;;-3.61;77.10
34374;BME280;20637;55.770;37.592;2024-01-15T06:46:32;97462.28;;;-3.55;77.83
34374;BME280;20637;55.770;37.592;2024-01-15T06:48:58;97460.09;;;-3.50;77.85
34374;BME280;20637;55.770;37.592;2024-01-15T06:51:23;97461.63;;;-3.47;77.33
34374;BME280;20637;55.770;37.592;2024-01-15T06:53:49;97461.22;;;-3.43;77.90
34374;BME280;20637;55.770;37.592;2024-01-15T06:56:14;97469.84;;;-3.41;77.30
34374;BME280;20637;55.770;37.592;2024-01-15T06:58:40;97461.22;;;-3.43;78.12
34374;BME280;20637;55.770;37.592;2024-01-15T07:01:06;97475.25;;;-3.42;77.28
34374;BME280;20637;55.770;37.592;2024-01-15T07:03:31;97473.06;;;-3.37;77.93
34374;BME280;20637;55.770;37.592;2024-01-15T07:05:57;97465.53;;;-3.32;77.97
34374;BME280;20637;55.770;37.592;2024-01-15T07:08:23;97465.53;;;-3.32;77.70
34374;BME280;20637;55.770;37.592;2024-01-15T07:10:48;97466.38;;;-3.31;77.73
34374;BME280;20637;55.770;37.592;2024-01-15T07:13:14;97457.22;;;-3.27;78.14
34374;BME280;20637;55.770;37.592;2024-01-15T07:15:40;97461.28;;;-3.23;77.74
34374;BME280;20637;55.770;37.592;2024-01-15T07:18:05;97453.06;;;-3.20;78.30
34374;BME280;20637;55.770;37.592;2024-01-15T07:20:31;97447.69;;;-3.19;78.28
34374;BME280;20637;55.770;37.592;2024-01-15T07:22:56;97444.50;;;-3.13;78.32
34374;BME280;20637;55.770;37.592;2024-01-15T07:25:22;97457.84;;;-3.05;78.51
34374;BME280;20637;55.770;37.592;2024-01-15T07:27:48;97453.13;;;-3.11;78.33
34374;BME280;20637;55.770;37.592;2024-01-15T07:30:14;97455.06;;;-3.13;78.25
34374;BME280;20637;55.770;37.592;2024-01-15T07:32:39;97457.84;;;-3.14;77.84
34374;BME280;20637;55.770;37.592;2024-01-15T07:35:06;97453.13;;;-3.11;77.86
34374;BME280;20637;55.770;37.592;2024-01-15T07:37:32;97451.59;;;-3.13;77.88
34374;BME280;20637;55.770;37.592;2024-01-15T07:39:59;97455.63;;;-3.09;78.61
34374;BME280;20637;55.770;37.592;2024-01-15T07:42:25;97460.63;;;-3.06;78.51
34374;BME280;20637;55.770;37.592;2024-01-15T07:44:50;97451.59;;;-3.04;78.73
34374;BME280;20637;55.770;37.592;2024-01-15T07:47:17;97455.09;;;-2.94;78.44
34374;BME280;20637;55.770;37.592;2024-01-15T07:49:43;97459.09;;;-2.90;78.84
34374;BME280;20637;55.770;37.592;2024-01-15T07:52:09;97449.25;;;-2.88;78.69
34374;BME280;20637;55.770;37.592;2024-01-15T07:54:35;97451.88;;;-2.88;78.36
34374;BME280;20637;55.770;37.592;2024-01-15T07:57:02;97453.16;;;-2.82;78.93
34374;BME280;20637;55.770;37.592;2024-01-15T07:59:29;97453.72;;;-2.78;79.30
34374;BME280;20637;55.770;37.592;2024-01-15T08:01:54;97448.00;;;-2.83;79.01
34374;BME280;20637;55.770;37.592;2024-01-15T08:04:20;97447.88;;;-2.82;78.86
34374;BME280;20637;55.770;37.592;2024-01-15T08:06:47;97449.41;;;-2.79;78.71
34374;BME280;20637;55.770;37.592;2024-01-15T08:09:13;97459.41;;;-2.73;78.77
34374;BME280;20637;55.770;37.592;2024-01-15T08:11:40;97451.50;;;-2.64;79.35
34374;BME280;20637;55.770;37.592;2024-01-15T08:14:07;97449.00;;;-2.56;78.88
34374;BME280;20637;55.770;37.592;2024-01-15T08:16:33;97450.63;;;-2.55;79.04
34374;BME280;20637;55.770;37.592;2024-01-15T08:18:59;97446.47;;;-2.48;79.01
34374;BME280;20637;55.770;37.592;2024-01-15T08:21:24;97445.47;;;-2.47;79.13
34374;BME280;20637;55.770;37.592;2024-01-15T08:23:50;97446.16;;;-2.35;78.87
34374;BME280;20637;55.770;37.592;2024-01-15T08:26:15;97447.56;;;-2.31;78.86
34374;BME280;20637;55.770;37.592;2024-01-15T08:28:41;97442.28;;;-2.31;79.12
34374;BME280;20637;55.770;37.592;2024-01-15T08:31:07;97439.91;;;-2.34;78.93
34374;BME280;20637;55.770;37.592;2024-01-15T08:33:32;97449.09;;;-2.28;79.16
34374;BME280;20637;55.770;37.592;2024-01-15T08:35:58;97442.16;;;-2.29;79.03
34374;BME280;20637;55.770;37.592;2024-01-15T08:38:23;97446.47;;;-2.28;79.11
34374;BME280;20637;55.770;37.592;2024-01-15T08:40:50;97452.13;;;-2.23;79.08
34374;BME280;20637;55.770;37.592;2024-01-15T08:43:18;97455.31;;;-2.20;79.43
34374;BME280;20637;55.770;37.592;2024-01-15T08:45:44;97462.16;;;-2.17;79.30
34374;BME280;20637;55.770;37.592;2024-01-15T08:48:10;97458.13;;;-2.21;79.41
34374;BME280;20637;55.770;37.592;2024-01-15T08:50:36;97454.34;;;-2.19;79.56
34374;BME280;20637;55.770;37.592;2024-01-15T08:53:02;97457.97;;;-2.20;79.68
34374;BME280;20637;55.770;37.592;2024-01-15T08:55:28;97451.88;;;-2.20;79.69
34374;BME280;20637;55.770;37.592;2024-01-15T08:57:54;97452.56;;;-2.18;79.72
34374;BME280;20637;55.770;37.592;2024-01-15T09:00:19;97454.06;;;-2.16;79.98
34374;BME280;20637;55.770;37.592;2024-01-15T09:02:45;97440.34;;;-2.29;80.16
34374;BME280;20637;55.770;37.592;2024-01-15T09:05:11;97446.63;;;-2.39;80.33
34374;BME280;20637;55.770;37.592;2024-01-15T09:07:37;97451.19;;;-2.42;80.58
34374;BME280;20637;55.770;37.592;2024-01-15T09:10:03;97447.00;;;-2.34;80.83
34374;BME280;20637;55.770;37.592;2024-01-15T09:12:30;97449.53;;;-2.33;81.10
34374;BME280;20637;55.770;37.592;2024-01-15T09:14:55;97454.09;;;-2.25;81.53
34374;BME280;20637;55.770;37.592;2024-01-15T09:17:21;97443.94;;;-2.20;81.54
34374;BME280;20637;55.770;37.592;2024-01-15T09:19:50;97448.94;;;-2.17;81.89
34374;BME280;20637;55.770;37.592;2024-01-15T09:22:15;97451.28;;;-2.14;81.63
34374;BME280;20637;55.770;37.592;2024-01-15T09:24:45;97440.84;;;-2.06;81.80
34374;BME280;20637;55.770;37.592;2024-01-15T09:27:11;97440.81;;;-1.97;82.15
34374;BME280;20637;55.770;37.592;2024-01-15T09:29:36;97435.78;;;-1.90;81.63
34374;BME280;20637;55.770;37.592;2024-01-15T09:32:06;97439.66;;;-1.84;81.72
34374;BME280;20637;55.770;37.592;2024-01-15T09:34:33;97437.91;;;-1.94;81.03
34374;BME280;20637;55.770;37.592;2024-01-15T09:36:59;97440.66;;;-1.95;81.11
34374;BME280;20637;55.770;37.592;2024-01-15T09:39:28;97441.09;;;-2.00;81.08
34374;BME280;20637;55.770;37.592;2024-01-15T09:41:54;97444.44;;;-1.98;80.89
34374;BME280;20637;55.770;37.592;2024-01-15T09:44:20;97429.69;;;-1.90;81.45
34374;BME280;20637;55.770;37.592;2024-01-15T09:46:47;97436.47;;;-1.88;81.20
34374;BME280;20637;55.770;37.592;2024-01-15T09:49:16;97439.81;;;-1.86;81.17
34374;BME280;20637;55.770;37.592;2024-01-15T09:51:42;97440.91;;;-1.88;81.29
34374;BME280;20637;55.770;37.592;2024-01-15T09:54:08;97447.34;;;-2.01;81.14
34374;BME280;20637;55.770;37.592;2024-01-15T09:56:35;97450.69;;;-1.99;81.14
34374;BME280;20637;55.770;37.592;2024-01-15T09:59:01;97450.69;;;-1.99;81.60
34374;BME280;20637;55.770;37.592;2024-01-15T10:01:28;97446.09;;;-1.97;81.56
34374;BME280;20637;55.770;37.592;2024-01-15T10:03:54;97445.38;;;-1.89;81.44
34374;BME280;20637;55.770;37.592;2024-01-15T10:06:21;97446.63;;;-1.83;82.01
34374;BME280;20637;55.770;37.592;2024-01-15T10:08:49;97446.50;;;-1.82;81.53
34374;BME280;20637;55.770;37.592;2024-01-15T10:11:15;97447.88;;;-1.78;81.81
34374;BME280;20637;55.770;37.592;2024-01-15T10:13:45;97446.00;;;-1.68;81.58
34374;BME280;20637;55.770;37.592;2024-01-15T10:16:11;97441.25;;;-1.64;80.99
34374;BME280;20637;55.770;37.592;2024-01-15T10:18:36;97449.06;;;-1.63;81.11
34374;BME280;20637;55.770;37.592;2024-01-15T10:21:06;97442.63;;;-1.60;80.65
34374;BME280;20637;55.770;37.592;2024-01-15T10:23:32;97446.22;;;-1.52;80.81
34374;BME280;20637;55.770;37.592;2024-01-15T10:25:58;97446.75;;;-1.48;80.01
34374;BME280;20637;55.770;37.592;2024-01-15T10:28:26;97448.44;;;-1.47;80.35
34374;BME280;20637;55.770;37.592;2024-01-15T10:30:54;97451.31;;;-1.40;80.37
34374;BME280;20637;55.770;37.592;2024-01-15T10:33:23;97441.59;;;-1.50;79.77
34374;BME280;20637;55.770;37.592;2024-01-15T10:35:56;97451.22;;;-1.49;79.29
34374;BME280;20637;55.770;37.592;2024-01-15T10:38:23;97443.41;;;-1.50;79.20
34374;BME280;20637;55.770;37.592;2024-01-15T10:40:53;97456.81;;;-1.52;79.60
34374;BME280;20637;55.770;37.592;2024-01-15T10:43:19;97444.25;;;-1.50;79.24
34374;BME280;20637;55.770;37.592;2024-01-15T10:45:45;97446.91;;;-1.50;78.65
34374;BME280;20637;55.770;37.592;2024-01-15T10:48:12;97446.06;;;-1.50;79.03
34374;BME280;20637;55.770;37.592;2024-01-15T10:50:37;97447.88;;;-1.51;78.76
34374;BME280;20637;55.770;37.592;2024-01-15T10:53:04;97453.25;;;-1.42;78.89
34374;BME280;20637;55.770;37.592;2024-01-15T10:55:31;97446.03;;;-1.40;79.28
34374;BME280;20637;55.770;37.592;2024-01-15T10:57:57;97435.44;;;-1.40;78.65
34374;BME280;20637;55.770;37.592;2024-01-15T11:00:23;97440.19;;;-1.44;79.13
34374;BME280;20637;55.770;37.592;2024-01-15T11:02:51;97437.84;;;-1.47;79.47
34374;BME280;20637;55.770;37.592;2024-01-15T11:05:21;97438.84;;;-1.48;78.96
34374;BME280;20637;55.770;37.592;2024-01-15T11:07:50;97441.25;;;-1.55;79.15
34374;BME280;20637;55.770;37.592;2024-01-15T11:15:57;97443.41;;;-1.50;79.49
34374;BME280;20637;55.770;37.592;2024-01-15T11:18:23;97450.38;;;-1.49;78.76
34374;BME280;20637;55.770;37.592;2024-01-15T11:26:36;97431.13;;;-1.41;79.56
34374;BME280;20637;55.770;37.592;2024-01-15T11:29:03;97439.59;;;-1.38;78.73
34374;BME280;20637;55.770;37.592;2024-01-15T11:32:09;97428.47;;;-1.41;78.68
34374;BME280;20637;55.770;37.592;2024-01-15T11:34:52;97436.81;;;-1.36;78.54
34374;BME280;20637;55.770;37.592;2024-01-15T11:37:21;97429.13;;;-1.30;78.98
34374;BME280;20637;55.770;37.592;2024-01-15T11:39:50;97421.28;;;-1.22;79.09
34374;BME280;20637;55.770;37.592;2024-01-15T11:42:16;97420.19;;;-1.29;78.37
34374;BME280;20637;55.770;37.592;2024-01-15T11:44:44;97420.50;;;-1.32;77.80
34374;BME280;20637;55.770;37.592;2024-01-15T11:47:11;97426.91;;;-1.34;78.30
34374;BME280;20637;55.770;37.592;2024-01-15T11:50:00;97424.03;;;-1.41;77.79
34374;BME280;20637;55.770;37.592;2024-01-15T11:52:35;97431.00;;;-1.40;78.31
34374;BME280;20637;55.770;37.592;2024-01-15T11:55:14;97425.94;;;-1.33;78.38
34374;BME280;20637;55.770;37.592;2024-01-15T12:00:10;97431.84;;;-1.39;77.98
34374;BME280;20637;55.770;37.592;2024-01-15T12:02:41;97427.50;;;-1.40;77.54
34374;BME280;20637;55.770;37.592;2024-01-15T12:05:11;97435.00;;;-1.36;78.28
34374;BME280;20637;55.770;37.592;2024-01-15T12:07:40;97436.38;;;-1.32;78.24
34374;BME280;20637;55.770;37.592;2024-01-15T12:10:10;97438.88;;;-1.30;77.72
34374;BME280;20637;55.770;37.592;2024-01-15T12:15:27;97432.91;;;-1.32;77.67
34374;BME280;20637;55.770;37.592;2024-01-15T12:17:58;97434.19;;;-1.36;77.71
34374;BME280;20637;55.770;37.592;2024-01-15T12:20:25;97423.06;;;-1.40;78.19
34374;BME280;20637;55.770;37.592;2024-01-15T12:22:50;97425.25;;;-1.35;78.22
34374;BME280;20637;55.770;37.592;2024-01-15T12:25:16;97427.31;;;-1.29;77.92
34374;BME280;20637;55.770;37.592;2024-01-15T12:27:42;97423.53;;;-1.27;77.72
34374;BME280;20637;55.770;37.592;2024-01-15T12:30:11;97433.66;;;-1.22;77.75
34374;BME280;20637;55.770;37.592;2024-01-15T12:32:37;97421.97;;;-1.20;77.82
34374;BME280;20637;55.770;37.592;2024-01-15T12:35:03;97434.38;;;-1.20;77.67
34374;BME280;20637;55.770;37.592;2024-01-15T12:37:31;97416.50;;;-1.18;78.14
34374;BME280;20637;55.770;37.592;2024-01-15T12:39:58;97419.56;;;-1.13;78.00
34374;BME280;20637;55.770;37.592;2024-01-15T12:42:24;97424.69;;;-1.12;77.58
34374;BME280;20637;55.770;37.592;2024-01-15T12:44:50;97440.63;;;-1.21;78.21
34374;BME280;20637;55.770;37.592;2024-01-15T12:47:16;97433.56;;;-1.30;77.53
34374;BME280;20637;55.770;37.592;2024-01-15T12:49:47;97434.00;;;-1.35;78.20
34374;BME280;20637;55.770;37.592;2024-01-15T12:52:19;97427.22;;;-1.37;78.10
34374;BME280;20637;55.770;37.592;2024-01-15T12:54:45;97421.03;;;-1.28;77.99
34374;BME280;20637;55.770;37.592;2024-01-15T12:57:11;97430.50;;;-1.26;78.23
34374;BME280;20637;55.770;37.592;2024-01-15T12:59:37;97419.06;;;-1.26;78.36
34374;BME280;20637;55.770;37.592;2024-01-15T13:02:02;97434.56;;;-1.31;78.69
34374;BME280;20637;55.770;37.592;2024-01-15T13:04:28;97435.38;;;-1.31;78.85